Anthony, Texas
Current Conditions -  °F | °C
As of 9:58 AM on Friday 21 Nov 2014 (Local Time) from KBIF Reporting Station
Broken Clouds Broken Clouds  
Wind Chill: 55°   Ceiling: 25000
Heat Index: 55°   Visibility: 10mi
Dew Point: 23°   Wind: 1mph
Humidity: 29%   Direction: NA
Pressure: 30.05"   Gusts: NA
Location:  32°N, 106.61°W
Report Text: KBIF 211658Z VRB01KT 10SM BKN250 13/M05 A3005 RMK AO2A SLP147 T01261050 $
Loading
Personal Weather Stations






























Interactive Weather Map New forecast layout! Learn more

10-Day Weather Forecast

Advertisements
Track Severe Weather on mobile